Time;durP1;ratioP1;P1;durP2;ratioP2;P2;SDS_P1;SDS_P2;PMS_P1;PMS_P2;Temp;Humidity;BMP_temperature;BMP_pressure;BME280_temperature;BME280_humidity;BME280_pressure;Samples;Min_cycle;Max_cycle;Signal;HPM_P1;HPM_P2
2022/07/03 00:01:00;;;;;;;3.35;1.58;;;18.00;99.90;;;;;;5068438;28;20028;-63
2022/07/03 00:03:26;;;;;;;3.95;1.52;;;18.00;99.90;;;;;;5074850;28;20027;-64
2022/07/03 00:05:52;;;;;;;2.75;1.45;;;18.00;99.90;;;;;;5071937;28;20137;-63
2022/07/03 00:08:17;;;;;;;1.92;1.55;;;18.10;99.90;;;;;;5074986;28;20035;-65
2022/07/03 00:10:43;;;;;;;2.53;1.42;;;18.10;99.90;;;;;;5080074;28;20490;-64
2022/07/03 00:13:09;;;;;;;2.92;1.45;;;18.10;99.90;;;;;;5073209;28;20020;-63
2022/07/03 00:15:35;;;;;;;2.67;1.50;;;18.00;99.90;;;;;;5078981;28;20024;-66
2022/07/03 00:18:01;;;;;;;4.45;1.70;;;18.00;99.90;;;;;;5078438;28;20399;-63
2022/07/03 00:20:32;;;;;;;3.92;1.60;;;18.00;99.90;;;;;;5076419;28;20032;-63
2022/07/03 00:23:02;;;;;;;2.42;1.60;;;17.90;99.90;;;;;;5077702;28;20583;-64
2022/07/03 00:25:28;;;;;;;5.50;1.90;;;18.00;99.90;;;;;;5080174;28;20411;-63
2022/07/03 00:27:55;;;;;;;3.05;1.48;;;18.10;99.90;;;;;;5079313;28;20693;-65
2022/07/03 00:30:21;;;;;;;6.20;1.77;;;18.00;99.90;;;;;;5082869;28;20835;-64
2022/07/03 00:32:48;;;;;;;5.45;1.60;;;18.00;99.90;;;;;;5081153;28;20103;-63
2022/07/03 00:35:16;;;;;;;3.20;1.48;;;18.00;99.90;;;;;;5067628;28;20021;-63
2022/07/03 00:37:42;;;;;;;4.63;1.80;;;18.10;99.90;;;;;;5078677;28;20028;-63
2022/07/03 00:40:09;;;;;;;2.10;1.50;;;18.10;99.90;;;;;;5065246;28;20062;-64
2022/07/03 00:42:39;;;;;;;2.50;1.65;;;18.00;99.90;;;;;;5078242;28;20493;-62
2022/07/03 00:45:07;;;;;;;6.43;2.10;;;18.00;99.90;;;;;;5079488;28;20025;-63
2022/07/03 00:47:36;;;;;;;4.53;1.90;;;18.10;99.90;;;;;;5076470;28;20040;-63
2022/07/03 00:50:06;;;;;;;2.17;1.58;;;18.00;99.90;;;;;;5073698;28;20059;-64
2022/07/03 00:52:33;;;;;;;3.28;1.70;;;17.90;99.90;;;;;;5076204;28;20475;-65
2022/07/03 00:55:00;;;;;;;4.38;1.80;;;17.90;99.90;;;;;;5075645;28;20391;-65
2022/07/03 00:57:29;;;;;;;5.40;1.60;;;18.00;99.90;;;;;;5076402;28;20032;-62
2022/07/03 00:59:55;;;;;;;3.78;1.60;;;17.90;99.90;;;;;;5084800;28;20042;-62
2022/07/03 01:02:28;;;;;;;3.65;1.58;;;17.80;99.90;;;;;;5084344;28;20125;-63
2022/07/03 01:05:21;;;;;;;3.70;1.70;;;17.60;99.90;;;;;;5075649;28;20452;-63
2022/07/03 01:08:11;;;;;;;3.13;1.42;;;17.70;99.90;;;;;;5073926;28;20103;-63
2022/07/03 01:11:09;;;;;;;3.53;1.55;;;17.60;99.90;;;;;;5077701;28;20043;-62
2022/07/03 01:13:56;;;;;;;3.08;1.30;;;17.60;99.90;;;;;;5071241;28;20440;-63
2022/07/03 01:16:30;;;;;;;3.20;1.35;;;17.60;99.90;;;;;;5075254;28;20408;-62
2022/07/03 01:19:03;;;;;;;3.72;1.60;;;17.60;99.90;;;;;;5080213;28;20643;-63
2022/07/03 01:21:50;;;;;;;2.47;1.77;;;17.50;99.90;;;;;;5069677;28;20021;-64
2022/07/03 01:24:41;;;;;;;3.45;1.60;;;17.50;99.90;;;;;;5072528;28;20047;-64
2022/07/03 01:27:27;;;;;;;6.22;1.70;;;17.50;99.90;;;;;;5083647;28;20050;-64
2022/07/03 01:30:06;;;;;;;5.00;1.65;;;17.40;99.90;;;;;;5072182;28;20075;-64
2022/07/03 01:32:38;;;;;;;4.32;1.80;;;17.50;99.90;;;;;;5076191;28;20118;-63
2022/07/03 01:35:06;;;;;;;3.53;1.63;;;17.30;99.90;;;;;;5073835;28;20031;-63
2022/07/03 01:37:34;;;;;;;3.58;1.80;;;17.20;99.90;;;;;;5098511;28;20059;-63
2022/07/03 01:40:03;;;;;;;3.28;1.77;;;17.20;99.90;;;;;;5078715;28;20096;-63
2022/07/03 01:42:32;;;;;;;4.68;2.00;;;17.30;99.90;;;;;;5083711;28;20159;-63
2022/07/03 01:44:59;;;;;;;3.70;1.75;;;17.10;99.90;;;;;;5074435;28;20028;-63
2022/07/03 01:47:25;;;;;;;3.17;1.60;;;17.10;99.90;;;;;;5072566;28;20044;-63
2022/07/03 01:49:53;;;;;;;2.33;1.63;;;17.10;99.90;;;;;;5074246;28;20020;-65
2022/07/03 01:52:20;;;;;;;1.92;1.50;;;17.10;99.90;;;;;;5072610;28;20426;-64
2022/07/03 01:54:47;;;;;;;3.83;1.83;;;17.10;99.90;;;;;;5074771;28;20031;-62
2022/07/03 01:57:14;;;;;;;4.15;1.70;;;17.10;99.90;;;;;;5087411;28;20049;-64
2022/07/03 01:59:40;;;;;;;4.60;1.90;;;17.00;99.90;;;;;;5086556;28;20027;-63
2022/07/03 02:02:28;;;;;;;5.88;1.80;;;17.00;99.90;;;;;;5073462;28;20031;-62
2022/07/03 02:05:19;;;;;;;3.83;1.80;;;17.10;99.90;;;;;;5085992;28;20020;-62
2022/07/03 02:07:52;;;;;;;7.45;1.90;;;17.00;99.90;;;;;;5081207;28;20039;-62
2022/07/03 02:10:26;;;;;;;4.47;1.80;;;17.00;99.90;;;;;;5074884;28;20126;-62
2022/07/03 02:13:07;;;;;;;4.38;1.73;;;17.00;99.90;;;;;;5071570;28;20020;-62
2022/07/03 02:15:35;;;;;;;3.35;1.73;;;17.10;99.90;;;;;;5083565;28;20095;-64
2022/07/03 02:18:24;;;;;;;2.60;1.90;;;16.90;99.90;;;;;;5079301;28;20042;-62
2022/07/03 02:21:12;;;;;;;4.57;1.88;;;16.80;99.90;;;;;;5075764;28;20107;-62
2022/07/03 02:23:59;;;;;;;3.35;1.60;;;16.70;99.90;;;;;;5084731;28;20032;-62
2022/07/03 02:26:32;;;;;;;3.90;1.98;;;16.60;99.90;;;;;;5080227;28;20071;-65
2022/07/03 02:29:06;;;;;;;2.53;1.92;;;16.90;99.90;;;;;;5077078;28;20036;-62
2022/07/03 02:31:39;;;;;;;5.65;2.10;;;16.90;99.90;;;;;;5075136;28;20046;-63
2022/07/03 02:34:06;;;;;;;3.87;1.77;;;16.80;99.90;;;;;;5087927;28;20608;-62
2022/07/03 02:36:34;;;;;;;3.92;1.90;;;16.80;99.90;;;;;;5075296;28;20672;-64
2022/07/03 02:39:00;;;;;;;2.97;2.00;;;16.70;99.90;;;;;;5077211;28;20031;-64
2022/07/03 02:41:45;;;;;;;3.78;1.90;;;16.70;99.90;;;;;;5069801;28;20403;-62
2022/07/03 02:44:29;;;;;;;1.90;1.70;;;16.70;99.90;;;;;;5075312;28;20036;-62
2022/07/03 02:47:11;;;;;;;4.00;1.83;;;16.70;99.90;;;;;;5081381;28;20419;-63
2022/07/03 02:50:04;;;;;;;4.35;1.92;;;16.60;99.90;;;;;;5077285;28;20237;-64
2022/07/03 02:52:38;;;;;;;3.83;1.90;;;16.70;99.90;;;;;;5083730;28;20687;-64
2022/07/03 02:55:37;;;;;;;3.13;1.60;;;16.70;99.90;;;;;;5076162;28;20073;-63
2022/07/03 02:58:11;;;;;;;2.90;1.67;;;16.60;99.90;;;;;;5077593;28;20052;-63
2022/07/03 03:00:42;;;;;;;2.53;1.88;;;16.50;99.90;;;;;;5070161;28;20611;-66
2022/07/03 03:03:08;;;;;;;3.92;1.75;;;16.40;99.90;;;;;;5077259;28;20046;-62
2022/07/03 03:05:48;;;;;;;3.15;1.92;;;16.50;99.90;;;;;;5072125;28;20021;-63
2022/07/03 03:08:36;;;;;;;4.13;2.10;;;16.40;99.90;;;;;;5082476;28;20024;-62
2022/07/03 03:11:07;;;;;;;3.47;2.03;;;16.40;99.90;;;;;;5086181;28;20023;-63
2022/07/03 03:13:32;;;;;;;4.10;2.00;;;16.30;99.90;;;;;;5071228;28;20109;-62
2022/07/03 03:16:06;;;;;;;3.20;1.90;;;16.40;99.90;;;;;;5073550;28;20059;-63
2022/07/03 03:18:35;;;;;;;5.57;2.15;;;16.40;99.90;;;;;;5075198;28;20494;-63
2022/07/03 03:21:02;;;;;;;4.28;2.25;;;16.40;99.90;;;;;;5073018;28;20477;-63
2022/07/03 03:23:44;;;;;;;5.93;1.90;;;16.20;99.90;;;;;;5072075;28;20545;-63
2022/07/03 03:26:11;;;;;;;4.57;2.03;;;16.30;99.90;;;;;;5079383;28;20028;-62
2022/07/03 03:28:37;;;;;;;3.80;2.00;;;16.30;99.90;;;;;;5075865;28;20028;-63
2022/07/03 03:31:07;;;;;;;4.28;2.00;;;16.20;99.90;;;;;;5074718;28;20077;-63
2022/07/03 03:33:38;;;;;;;3.65;2.05;;;16.20;99.90;;;;;;5074120;28;20028;-61
2022/07/03 03:36:06;;;;;;;4.50;1.88;;;16.20;99.90;;;;;;5079600;28;20028;-62
2022/07/03 03:38:32;;;;;;;7.65;2.05;;;16.30;99.90;;;;;;5080796;28;20039;-62
2022/07/03 03:40:58;;;;;;;5.32;2.25;;;16.20;99.90;;;;;;5081252;28;20028;-62
2022/07/03 03:43:24;;;;;;;3.17;2.03;;;16.20;99.90;;;;;;5081241;28;20123;-63
2022/07/03 03:45:50;;;;;;;5.75;2.65;;;16.20;99.90;;;;;;5083319;28;20107;-63
2022/07/03 03:48:15;;;;;;;7.18;2.22;;;16.20;99.90;;;;;;5073427;28;20060;-63
2022/07/03 03:50:42;;;;;;;6.03;2.15;;;16.20;99.90;;;;;;5077742;28;20051;-64
2022/07/03 03:53:10;;;;;;;3.85;2.30;;;16.10;99.90;;;;;;5082530;28;20024;-65
2022/07/03 03:55:35;;;;;;;6.53;2.50;;;16.30;99.90;;;;;;5080874;28;20021;-62
2022/07/03 03:58:04;;;;;;;6.13;3.38;;;16.50;99.90;;;;;;5087554;28;20031;-62
2022/07/03 04:00:30;;;;;;;5.03;3.40;;;16.60;99.90;;;;;;5081295;28;20552;-64
2022/07/03 04:02:56;;;;;;;6.20;3.50;;;16.90;99.90;;;;;;5083471;28;20021;-63
2022/07/03 04:05:21;;;;;;;5.40;3.70;;;16.90;99.90;;;;;;5075508;28;20737;-62
2022/07/03 04:07:47;;;;;;;7.90;3.90;;;17.00;99.90;;;;;;5071046;28;20044;-65
2022/07/03 04:10:13;;;;;;;4.57;3.35;;;17.00;99.90;;;;;;5076106;28;20105;-62
2022/07/03 04:12:38;;;;;;;6.70;3.53;;;17.00;99.90;;;;;;5077104;28;20035;-62
2022/07/03 04:15:04;;;;;;;6.60;3.60;;;17.10;99.90;;;;;;5081316;28;20020;-63
2022/07/03 04:17:30;;;;;;;5.78;3.60;;;17.00;99.90;;;;;;5076826;28;20039;-62
2022/07/03 04:19:55;;;;;;;3.78;3.13;;;17.00;99.90;;;;;;5087121;28;20102;-64
2022/07/03 04:22:21;;;;;;;6.78;3.20;;;17.00;99.90;;;;;;5078949;28;20024;-62
2022/07/03 04:24:47;;;;;;;7.60;3.28;;;17.10;99.90;;;;;;5076593;28;20016;-63
2022/07/03 04:27:12;;;;;;;7.20;3.13;;;17.00;99.90;;;;;;5078645;28;20517;-62
2022/07/03 04:29:38;;;;;;;3.85;3.00;;;17.10;99.90;;;;;;5074938;28;20457;-63
2022/07/03 04:32:04;;;;;;;6.68;3.75;;;17.10;99.90;;;;;;5068157;28;20031;-63
2022/07/03 04:34:30;;;;;;;5.35;3.00;;;17.10;99.90;;;;;;5081241;28;20487;-63
2022/07/03 04:36:55;;;;;;;6.30;3.33;;;17.20;99.90;;;;;;5079396;28;20019;-64
2022/07/03 04:39:21;;;;;;;8.48;3.67;;;17.40;99.90;;;;;;5083832;28;20066;-65
2022/07/03 04:41:47;;;;;;;9.20;3.70;;;17.30;99.90;;;;;;5077759;28;20067;-64
2022/07/03 04:44:12;;;;;;;8.60;3.78;;;17.50;99.90;;;;;;5076001;28;20028;-63
2022/07/03 04:46:38;;;;;;;7.07;3.42;;;17.40;99.90;;;;;;5075610;28;20435;-64
2022/07/03 04:49:03;;;;;;;5.00;3.22;;;17.40;99.90;;;;;;5082664;28;20021;-62
2022/07/03 04:51:29;;;;;;;5.22;3.58;;;17.40;99.90;;;;;;5075830;28;20191;-66
2022/07/03 04:53:55;;;;;;;6.47;3.80;;;17.40;99.90;;;;;;5080779;28;20491;-64
2022/07/03 04:56:20;;;;;;;6.18;3.97;;;17.60;99.90;;;;;;5083344;28;20028;-63
2022/07/03 04:58:46;;;;;;;6.47;3.97;;;17.60;99.90;;;;;;5081525;28;20103;-63
2022/07/03 05:01:11;;;;;;;5.00;3.95;;;17.80;99.90;;;;;;5076671;28;20093;-63
2022/07/03 05:03:37;;;;;;;7.00;4.07;;;17.80;99.90;;;;;;5071677;28;20090;-64
2022/07/03 05:06:03;;;;;;;6.35;4.22;;;18.00;99.90;;;;;;5073790;28;20028;-62
2022/07/03 05:08:28;;;;;;;7.60;4.85;;;18.00;99.90;;;;;;5076583;28;20032;-64
2022/07/03 05:10:54;;;;;;;6.97;5.07;;;18.10;99.90;;;;;;5082066;28;20031;-63
2022/07/03 05:13:19;;;;;;;6.65;4.85;;;18.10;99.90;;;;;;5078631;28;20027;-63
2022/07/03 05:15:45;;;;;;;8.48;5.30;;;18.20;99.90;;;;;;5075773;28;20096;-64
2022/07/03 05:18:10;;;;;;;9.23;5.30;;;18.30;99.90;;;;;;5076940;28;20418;-62
2022/07/03 05:20:36;;;;;;;6.95;5.60;;;18.40;99.90;;;;;;5080905;28;20111;-63
2022/07/03 05:23:02;;;;;;;9.15;5.40;;;18.20;99.90;;;;;;5077724;28;20504;-62
2022/07/03 05:25:31;;;;;;;8.85;6.15;;;18.30;99.90;;;;;;5087048;28;20424;-63
2022/07/03 05:27:58;;;;;;;7.65;5.72;;;18.40;99.90;;;;;;5085096;28;20035;-62
2022/07/03 05:30:25;;;;;;;8.23;5.95;;;18.40;99.90;;;;;;5076193;28;20379;-62
2022/07/03 05:32:51;;;;;;;7.05;6.35;;;18.30;99.90;;;;;;5081821;28;20045;-65
2022/07/03 05:35:16;;;;;;;8.75;6.18;;;18.50;99.90;;;;;;5082449;28;20555;-63
2022/07/03 05:37:42;;;;;;;8.65;7.43;;;18.50;99.90;;;;;;5083895;28;20578;-64
2022/07/03 05:40:08;;;;;;;11.13;6.10;;;18.70;99.90;;;;;;5081235;28;20028;-66
2022/07/03 05:42:34;;;;;;;12.55;7.05;;;18.70;99.90;;;;;;5076699;28;20020;-63
2022/07/03 05:45:00;;;;;;;7.60;6.07;;;18.50;99.90;;;;;;5081096;28;20040;-64
2022/07/03 05:47:26;;;;;;;10.60;6.20;;;18.70;99.90;;;;;;5072966;28;20037;-63
2022/07/03 05:49:51;;;;;;;8.70;5.55;;;18.60;99.90;;;;;;5080526;28;20352;-65
2022/07/03 05:52:17;;;;;;;10.45;5.90;;;18.70;99.90;;;;;;5087535;28;20031;-63
2022/07/03 05:54:43;;;;;;;8.35;5.55;;;18.60;99.90;;;;;;5081270;28;20040;-63
2022/07/03 05:57:09;;;;;;;7.85;6.28;;;18.70;99.90;;;;;;5082354;28;20012;-64
2022/07/03 05:59:35;;;;;;;7.13;5.72;;;18.70;99.90;;;;;;5083677;28;20027;-63
2022/07/03 06:02:01;;;;;;;7.82;6.05;;;18.80;99.90;;;;;;5074331;28;20028;-63
2022/07/03 06:04:26;;;;;;;9.90;6.07;;;18.70;99.90;;;;;;5075474;28;20021;-64
2022/07/03 06:06:52;;;;;;;8.63;5.75;;;18.90;99.90;;;;;;5076005;28;20028;-65
2022/07/03 06:09:17;;;;;;;6.25;5.25;;;19.00;99.90;;;;;;5076091;28;20032;-63
2022/07/03 06:11:43;;;;;;;10.80;5.47;;;19.00;99.90;;;;;;5091146;27;20043;-63
2022/07/03 06:14:09;;;;;;;7.60;5.07;;;19.10;99.90;;;;;;5080544;28;20030;-64
2022/07/03 06:16:34;;;;;;;6.22;5.00;;;19.20;99.90;;;;;;5082864;28;20081;-64
2022/07/03 06:19:00;;;;;;;5.75;4.97;;;19.20;99.90;;;;;;5074071;28;20051;-63
2022/07/03 06:21:25;;;;;;;7.88;5.20;;;19.20;99.90;;;;;;5081175;28;20042;-64
2022/07/03 06:23:51;;;;;;;7.50;4.50;;;19.30;99.90;;;;;;5076542;28;20532;-64
2022/07/03 06:26:16;;;;;;;10.30;4.85;;;19.40;99.90;;;;;;5079294;28;20020;-66
2022/07/03 06:28:42;;;;;;;10.88;5.07;;;19.40;99.90;;;;;;5084501;28;20062;-66
2022/07/03 06:31:08;;;;;;;6.38;4.97;;;19.50;99.90;;;;;;5084500;28;20025;-64
2022/07/03 06:33:33;;;;;;;7.82;4.70;;;19.50;99.90;;;;;;5083116;28;20046;-66
2022/07/03 06:35:59;;;;;;;5.93;4.68;;;19.50;99.90;;;;;;5080894;28;20024;-65
2022/07/03 06:38:25;;;;;;;8.13;4.60;;;19.50;99.90;;;;;;5078616;28;20029;-63
2022/07/03 06:40:51;;;;;;;7.28;4.30;;;19.50;99.90;;;;;;5079111;28;20051;-64
2022/07/03 06:43:16;;;;;;;6.03;3.70;;;19.80;99.90;;;;;;5073008;28;20381;-64
2022/07/03 06:45:42;;;;;;;7.82;4.35;;;20.10;99.90;;;;;;5079973;28;20043;-63
2022/07/03 06:48:07;;;;;;;8.80;5.00;;;20.40;99.90;;;;;;5081708;28;20328;-63
2022/07/03 06:50:33;;;;;;;5.88;4.63;;;20.40;99.90;;;;;;5078454;28;20097;-64
2022/07/03 06:52:59;;;;;;;5.57;3.88;;;20.40;99.90;;;;;;5079947;28;20099;-65
2022/07/03 06:55:24;;;;;;;9.70;3.83;;;20.40;99.90;;;;;;5075453;28;20112;-62
2022/07/03 06:57:50;;;;;;;5.25;4.00;;;20.60;99.90;;;;;;5082625;28;20345;-64
2022/07/03 07:00:16;;;;;;;9.20;3.90;;;20.60;99.90;;;;;;5077765;28;20470;-63
2022/07/03 07:02:41;;;;;;;8.57;3.95;;;20.60;99.90;;;;;;5078758;28;20035;-64
2022/07/03 07:05:07;;;;;;;8.43;3.88;;;20.80;99.90;;;;;;5071401;28;20078;-64
2022/07/03 07:07:33;;;;;;;6.20;3.50;;;20.50;99.90;;;;;;5080179;28;20198;-63
2022/07/03 07:09:58;;;;;;;10.27;2.72;;;20.60;99.90;;;;;;5080881;28;20472;-63
2022/07/03 07:12:25;;;;;;;5.60;3.10;;;20.80;99.90;;;;;;5074565;28;20507;-65
2022/07/03 07:14:51;;;;;;;4.38;2.83;;;20.90;99.90;;;;;;5074662;28;20018;-64
2022/07/03 07:17:16;;;;;;;8.27;3.15;;;20.70;99.90;;;;;;5078598;28;20024;-63
2022/07/03 07:19:42;;;;;;;4.93;2.90;;;20.70;99.90;;;;;;5079702;28;20032;-65
2022/07/03 07:22:07;;;;;;;6.65;2.90;;;20.80;99.90;;;;;;5081820;28;20103;-63
2022/07/03 07:24:33;;;;;;;4.90;2.63;;;20.70;99.90;;;;;;5083183;28;20691;-63
2022/07/03 07:26:59;;;;;;;5.63;2.80;;;20.80;99.90;;;;;;5081161;28;20023;-64
2022/07/03 07:29:24;;;;;;;5.97;3.00;;;20.90;99.90;;;;;;5077777;28;20032;-65
2022/07/03 07:31:50;;;;;;;7.50;3.50;;;20.90;99.90;;;;;;5079975;28;20367;-62
2022/07/03 07:34:15;;;;;;;5.13;3.05;;;20.70;99.90;;;;;;5082505;28;20024;-62
2022/07/03 07:36:41;;;;;;;6.75;3.10;;;20.60;99.90;;;;;;5087010;28;20020;-65
2022/07/03 07:39:07;;;;;;;5.95;3.38;;;20.80;99.90;;;;;;5080986;28;20124;-64
2022/07/03 07:41:33;;;;;;;5.70;3.20;;;21.00;99.90;;;;;;5078707;28;20826;-64
2022/07/03 07:44:00;;;;;;;6.05;2.67;;;;;;;;;;5075396;28;20078;-65
2022/07/03 07:46:25;;;;;;;6.40;3.30;;;21.20;99.90;;;;;;5079738;28;20036;-65
2022/07/03 07:48:51;;;;;;;6.15;3.10;;;21.30;99.90;;;;;;5076523;28;20031;-62
2022/07/03 07:51:16;;;;;;;5.57;2.83;;;21.00;99.90;;;;;;5087061;28;20026;-63
2022/07/03 07:53:42;;;;;;;6.00;2.63;;;21.10;99.90;;;;;;5085794;28;20025;-64
2022/07/03 07:56:08;;;;;;;6.72;2.90;;;21.20;99.90;;;;;;5083096;28;20020;-63
2022/07/03 07:58:33;;;;;;;5.68;3.17;;;21.40;99.90;;;;;;5073674;28;20036;-63
2022/07/03 08:06:36;;;;;;;3.88;2.40;;;21.30;99.90;;;;;;5077131;28;20118;-64
2022/07/03 08:09:03;;;;;;;7.63;2.42;;;21.40;99.90;;;;;;5077598;28;20037;-63
2022/07/03 08:11:28;;;;;;;4.72;2.90;;;21.50;99.90;;;;;;5076826;28;20030;-63
2022/07/03 08:13:54;;;;;;;6.90;2.92;;;21.60;99.90;;;;;;5079507;28;20088;-63
2022/07/03 08:16:19;;;;;;;5.97;3.10;;;21.50;99.90;;;;;;5075854;28;20028;-63
2022/07/03 08:18:45;;;;;;;7.00;1.88;;;21.50;99.90;;;;;;5084157;28;20085;-64
2022/07/03 08:21:11;;;;;;;4.28;1.83;;;;;;;;;;5086559;28;20019;-64
2022/07/03 08:23:38;;;;;;;4.10;2.00;;;21.90;99.90;;;;;;5078534;28;20479;-67
2022/07/03 08:26:05;;;;;;;5.30;2.33;;;22.20;99.90;;;;;;5086764;28;20034;-65
2022/07/03 08:28:31;;;;;;;5.25;1.92;;;22.20;99.90;;;;;;5079349;28;20078;-63
2022/07/03 08:30:56;;;;;;;3.83;2.00;;;22.00;99.90;;;;;;5080495;28;20047;-64
2022/07/03 08:33:22;;;;;;;7.45;2.40;;;22.20;99.90;;;;;;5078304;28;20380;-64
2022/07/03 08:35:47;;;;;;;6.68;2.20;;;22.40;99.90;;;;;;5085606;28;20069;-66
2022/07/03 08:38:13;;;;;;;5.45;2.00;;;22.20;99.90;;;;;;5088350;28;20359;-66
2022/07/03 08:40:40;;;;;;;6.63;2.20;;;22.10;99.90;;;;;;5087826;28;20048;-65
2022/07/03 08:43:06;;;;;;;4.15;2.17;;;22.00;99.90;;;;;;5074423;28;20521;-64
2022/07/03 08:45:33;;;;;;;5.10;2.58;;;22.00;99.90;;;;;;5086294;28;20024;-65
2022/07/03 08:48:00;;;;;;;9.73;2.60;;;22.00;99.90;;;;;;5080543;28;20024;-64
2022/07/03 08:50:25;;;;;;;4.80;2.70;;;22.10;99.90;;;;;;5070742;28;20459;-62
2022/07/03 08:52:51;;;;;;;5.57;2.95;;;22.30;99.90;;;;;;5080625;28;20560;-63
2022/07/03 08:55:18;;;;;;;8.10;3.20;;;22.40;99.90;;;;;;5078081;28;20028;-63
2022/07/03 08:57:46;;;;;;;6.30;2.63;;;22.50;99.90;;;;;;5067968;28;20438;-63
2022/07/03 09:00:14;;;;;;;5.32;2.55;;;22.40;99.90;;;;;;5075004;28;20986;-66
2022/07/03 09:02:43;;;;;;;4.43;2.70;;;22.70;99.90;;;;;;5100772;27;20450;-65
2022/07/03 09:05:10;;;;;;;6.88;2.72;;;22.70;99.90;;;;;;5081191;28;20495;-63
2022/07/03 09:07:37;;;;;;;6.45;2.75;;;22.80;99.90;;;;;;5081627;28;20028;-63
2022/07/03 09:10:08;;;;;;;3.95;2.42;;;23.00;99.90;;;;;;5081002;28;20024;-62
2022/07/03 09:12:34;;;;;;;3.80;2.00;;;22.90;99.90;;;;;;5074664;28;20032;-62
2022/07/03 09:15:00;;;;;;;5.85;2.70;;;22.90;99.90;;;;;;5080253;28;20561;-64
2022/07/03 09:17:30;;;;;;;4.53;2.80;;;22.70;99.90;;;;;;5071784;28;20017;-63
2022/07/03 09:19:59;;;;;;;6.47;2.60;;;22.30;99.90;;;;;;5078078;28;20035;-65
2022/07/03 09:22:36;;;;;;;4.05;1.88;;;22.50;99.90;;;;;;5075120;28;20101;-62
2022/07/03 09:25:14;;;;;;;4.22;2.33;;;22.70;99.90;;;;;;5076574;28;20459;-62
2022/07/03 09:27:52;;;;;;;4.93;2.20;;;22.80;99.90;;;;;;5071861;28;20400;-63
2022/07/03 09:30:19;;;;;;;6.75;2.58;;;23.00;99.90;;;;;;5077157;28;20522;-64
2022/07/03 09:32:47;;;;;;;4.72;2.30;;;23.10;99.90;;;;;;5076996;28;20035;-62
2022/07/03 09:35:13;;;;;;;7.05;2.00;;;22.90;99.90;;;;;;5079996;28;20028;-63
2022/07/03 09:37:40;;;;;;;5.30;2.20;;;23.10;99.90;;;;;;5077272;28;20031;-63
2022/07/03 09:40:07;;;;;;;4.80;1.95;;;23.00;99.90;;;;;;5070133;28;20083;-61
2022/07/03 09:42:32;;;;;;;3.63;2.10;;;23.00;99.90;;;;;;5076054;28;20040;-62
2022/07/03 09:44:58;;;;;;;9.57;5.97;;;23.00;99.90;;;;;;5082026;28;20498;-72
2022/07/03 09:47:25;;;;;;;6.82;3.55;;;22.90;99.90;;;;;;5083369;28;20031;-65
2022/07/03 09:49:54;;;;;;;7.60;2.90;;;22.90;99.90;;;;;;5080197;28;20020;-65
2022/07/03 09:52:37;;;;;;;12.02;2.83;;;23.10;99.90;;;;;;5072250;28;20028;-64
2022/07/03 09:55:09;;;;;;;5.18;2.40;;;23.10;99.90;;;;;;5082190;28;20036;-64
2022/07/03 09:57:38;;;;;;;6.68;2.35;;;23.00;99.90;;;;;;5065169;28;20024;-64
2022/07/03 10:00:19;;;;;;;7.20;2.60;;;23.20;99.90;;;;;;5072337;28;20028;-63
2022/07/03 10:02:56;;;;;;;6.78;2.60;;;23.20;99.90;;;;;;5084995;28;20024;-66
2022/07/03 10:05:24;;;;;;;4.65;2.47;;;23.30;99.90;;;;;;5077657;28;20039;-63
2022/07/03 10:07:58;;;;;;;7.65;2.50;;;23.30;99.90;;;;;;5071235;28;20036;-64
2022/07/03 10:10:27;;;;;;;9.38;2.70;;;23.10;99.90;;;;;;5074170;28;20028;-63
2022/07/03 10:12:54;;;;;;;5.40;2.78;;;23.30;99.90;;;;;;5075128;28;20024;-65
2022/07/03 10:15:21;;;;;;;3.90;2.30;;;23.20;99.90;;;;;;5073586;28;20031;-66
2022/07/03 10:17:51;;;;;;;3.90;2.13;;;23.10;99.90;;;;;;5074661;28;20106;-67
2022/07/03 10:20:28;;;;;;;6.70;2.60;;;23.10;99.90;;;;;;5070357;28;20476;-67
2022/07/03 10:22:54;;;;;;;9.20;1.95;;;23.30;99.90;;;;;;5077332;28;20024;-64
2022/07/03 10:25:21;;;;;;;6.13;2.10;;;23.50;99.90;;;;;;5080154;28;20031;-64
2022/07/03 10:27:47;;;;;;;8.75;2.90;;;23.50;99.90;;;;;;5070597;28;20032;-64
2022/07/03 10:30:20;;;;;;;5.63;2.10;;;23.60;99.90;;;;;;5079340;28;20023;-65
2022/07/03 10:32:48;;;;;;;6.07;2.10;;;23.70;99.90;;;;;;5072193;28;20380;-64
2022/07/03 10:35:26;;;;;;;4.18;1.95;;;23.50;99.90;;;;;;5070491;28;20036;-67
2022/07/03 10:38:30;;;;;;;4.35;1.80;;;23.60;99.90;;;;;;5079488;28;20043;-65
2022/07/03 10:46:58;;;;;;;4.82;1.80;;;23.70;99.90;;;;;;5078487;28;20032;-64
2022/07/03 10:49:23;;;;;;;5.00;1.70;;;23.70;99.90;;;;;;5080287;28;20463;-66
2022/07/03 10:51:56;;;;;;;4.00;1.90;;;23.80;99.90;;;;;;5080582;28;20107;-64
2022/07/03 10:54:38;;;;;;;5.83;1.60;;;23.90;99.90;;;;;;5074261;28;20043;-63
2022/07/03 10:57:04;;;;;;;75.25;65.30;;;23.80;99.90;;;;;;5094539;28;20024;-68
2022/07/03 10:59:36;;;;;;;13.93;8.45;;;23.70;99.90;;;;;;5081816;28;20032;-67
2022/07/03 11:02:33;;;;;;;3.50;1.95;;;23.80;99.90;;;;;;5073586;28;20032;-64
2022/07/03 11:07:38;;;;;;;3.30;1.40;;;24.00;99.90;;;;;;5081784;28;20035;-65
2022/07/03 11:10:12;;;;;;;7.47;2.00;;;24.10;99.90;;;;;;5077401;28;20060;-63
2022/07/03 11:12:56;;;;;;;3.13;1.60;;;24.20;99.90;;;;;;5080241;28;20038;-66
2022/07/03 11:15:49;;;;;;;2.47;1.40;;;24.30;99.90;;;;;;5080559;28;20051;-65
2022/07/03 11:18:19;;;;;;;3.03;1.58;;;24.40;99.90;;;;;;5071699;28;20567;-64
2022/07/03 11:20:45;;;;;;;5.30;1.48;;;24.30;99.90;;;;;;5077215;28;20017;-64
2022/07/03 11:23:10;;;;;;;5.43;1.40;;;24.30;99.90;;;;;;5072798;28;20266;-64
2022/07/03 11:25:47;;;;;;;4.10;1.30;;;24.20;99.90;;;;;;5077667;28;20028;-64
2022/07/03 11:28:34;;;;;;;4.90;1.48;;;24.00;99.90;;;;;;5074442;28;20046;-65
2022/07/03 11:31:09;;;;;;;3.08;1.17;;;24.20;99.90;;;;;;5076935;28;20666;-64
2022/07/03 11:33:55;;;;;;;2.95;1.40;;;24.30;99.90;;;;;;5077709;28;20034;-65
2022/07/03 11:36:27;;;;;;;3.67;1.48;;;24.50;99.90;;;;;;5075338;28;20032;-65
2022/07/03 11:38:55;;;;;;;2.78;1.40;;;24.60;99.90;;;;;;5074973;28;20403;-63
2022/07/03 11:41:21;;;;;;;3.72;1.50;;;24.80;99.90;;;;;;5081209;28;20443;-64
2022/07/03 11:43:55;;;;;;;6.80;1.70;;;24.80;99.90;;;;;;5081496;28;20017;-65
2022/07/03 11:46:45;;;;;;;3.00;1.20;;;24.80;99.90;;;;;;5074663;28;20031;-64
2022/07/03 11:49:13;;;;;;;4.43;1.58;;;24.50;99.90;;;;;;5072439;28;20129;-65
2022/07/03 11:51:41;;;;;;;2.47;1.20;;;24.80;99.90;;;;;;5074584;28;20561;-64
2022/07/03 11:54:07;;;;;;;2.40;1.08;;;24.80;99.90;;;;;;5074516;28;20023;-65
2022/07/03 11:56:34;;;;;;;5.68;1.30;;;24.70;99.90;;;;;;5084613;28;20032;-64
2022/07/03 11:59:01;;;;;;;4.38;1.00;;;24.70;99.90;;;;;;5077516;28;20491;-64
2022/07/03 12:01:26;;;;;;;2.78;1.02;;;24.90;99.90;;;;;;5081110;28;20532;-65
2022/07/03 12:03:53;;;;;;;2.30;1.27;;;25.30;99.90;;;;;;5077079;28;20126;-64
2022/07/03 12:06:19;;;;;;;5.65;1.10;;;25.20;99.90;;;;;;5076117;28;20488;-66
2022/07/03 12:08:46;;;;;;;6.60;2.08;;;25.30;99.90;;;;;;5084726;28;20028;-65
2022/07/03 12:11:14;;;;;;;3.20;1.10;;;25.20;99.90;;;;;;5076110;28;20539;-64
2022/07/03 12:13:40;;;;;;;5.35;1.08;;;25.20;99.90;;;;;;5076330;28;20027;-64
2022/07/03 12:16:14;;;;;;;2.90;1.10;;;25.10;99.90;;;;;;5081401;28;20025;-64
2022/07/03 12:18:51;;;;;;;2.20;0.90;;;25.00;99.90;;;;;;5086358;28;20619;-64
2022/07/03 12:21:23;;;;;;;2.65;0.90;;;25.20;99.90;;;;;;5084693;28;20032;-64
2022/07/03 12:23:54;;;;;;;4.03;0.90;;;25.30;99.90;;;;;;5076129;28;20110;-65
2022/07/03 12:26:30;;;;;;;2.22;1.00;;;25.30;99.90;;;;;;5088156;28;20028;-64
2022/07/03 12:28:58;;;;;;;4.97;1.00;;;25.30;99.90;;;;;;5088167;28;20028;-65
2022/07/03 12:31:24;;;;;;;2.83;0.95;;;25.20;99.90;;;;;;5083479;28;20089;-65
2022/07/03 12:33:50;;;;;;;2.90;0.80;;;25.20;99.90;;;;;;5081168;28;20028;-65
2022/07/03 12:36:15;;;;;;;3.22;0.80;;;25.40;99.90;;;;;;5089925;28;20607;-66
2022/07/03 12:38:41;;;;;;;1.75;0.90;;;25.40;99.90;;;;;;5089295;28;20031;-66
2022/07/03 12:41:08;;;;;;;3.03;0.95;;;25.50;99.90;;;;;;5073479;28;20582;-66
2022/07/03 12:43:38;;;;;;;2.70;0.95;;;25.50;99.90;;;;;;5070226;28;20039;-68
2022/07/03 12:46:25;;;;;;;2.22;0.80;;;25.50;99.90;;;;;;5079254;28;20039;-67
2022/07/03 12:48:59;;;;;;;17.15;13.52;;;25.50;99.90;;;;;;5079033;28;20036;-77
2022/07/03 12:51:48;;;;;;;4.18;1.90;;;25.60;99.90;;;;;;5069692;28;22462;-65
2022/07/03 12:54:16;;;;;;;7.00;0.88;;;24.90;99.90;;;;;;5079633;28;20375;-66
2022/07/03 12:56:42;;;;;;;3.13;1.00;;;24.80;99.90;;;;;;5077638;28;20050;-66
2022/07/03 12:59:25;;;;;;;2.35;1.00;;;24.90;99.90;;;;;;5084937;28;20551;-67
2022/07/03 13:02:01;;;;;;;4.03;0.98;;;24.80;99.90;;;;;;5086864;28;20111;-67
2022/07/03 13:04:37;;;;;;;4.45;1.00;;;24.80;99.90;;;;;;5080694;28;20024;-66
2022/07/03 13:07:05;;;;;;;4.88;1.20;;;24.80;99.90;;;;;;5068648;28;20120;-66
2022/07/03 13:09:32;;;;;;;2.03;0.88;;;24.70;99.90;;;;;;5082670;28;20060;-66
2022/07/03 13:11:57;;;;;;;3.05;1.00;;;24.90;99.90;;;;;;5081551;28;20105;-66
2022/07/03 13:14:24;;;;;;;4.32;1.00;;;24.80;99.90;;;;;;5080918;28;20544;-66